Ulusoy-15 — TCUP4 — position and weather

sailwx.info

Track history (hours):
 
Tides and Currents Weather Stations Pressure Air Temp Water Temp Dewpoint Dewpoint Depression Visibility Wind Speed Wind Dir Waves Ship Positions

Ulusoy-15

Last reported at 2018-Feb-21 01:30 UTC. Time now 2018-Feb-22 14:50 UTC.
Position N 44°36' E 013°35'.

Length 208 m; draft 5.3 m.

Type: Ship (hazmat cat A). MMSI: 271043165.

Date/timePositionNaut miles runAvg speedWind from/ knotsBaromVisibWave heightAir tempDewpointWater temp
2018-Feb-21 01:30N 44°36' E 013°35'816.7
2018-Feb-21 01:01N 44°43' E 013°29'816.8
2018-Feb-21 00:31N 44°50' E 013°22'816.8
2018-Feb-21 00:01N 44°57' E 013°16'816.6
2018-Feb-20 23:30N 45°04' E 013°10'816.4
2018-Feb-20 23:01N 45°11' E 013°04'816.5
2018-Feb-20 22:31N 45°19' E 013°01'816.3
2018-Feb-20 22:01N 45°26' E 013°08'917.1
2018-Feb-20 21:31N 45°33' E 013°16'917.0
2018-Feb-20 21:01N 45°36' E 013°27'917.0
2018-Feb-20 20:31N 45°39' E 013°38'5 0.2
2018-Feb-19 12:17N 45°38' E 013°46'0 0.0
2018-Feb-19 11:59N 45°38' E 013°46'0 0.0
2018-Feb-19 11:30N 45°38' E 013°46'1 1.3
2018-Feb-19 11:00N 45°38' E 013°45'510.7
2018-Feb-19 10:31N 45°38' E 013°37'714.0
2018-Feb-19 10:00N 45°34' E 013°29'815.2
2018-Feb-19 09:30N 45°29' E 013°21'816.1
2018-Feb-19 09:00N 45°23' E 013°13'815.8
2018-Feb-19 08:30N 45°16' E 013°15'817.0
2018-Feb-19 08:00N 45°08' E 013°19'816.8
2018-Feb-19 07:30N 44°60' E 013°23'816.6
2018-Feb-19 07:00N 44°52' E 013°27'816.6
2018-Feb-19 06:30N 44°45' E 013°32'68015.0
2018-Feb-17 09:10N 37°14' E 024°48'317.0
2018-Feb-17 09:00N 37°16' E 024°50'917.1
2018-Feb-17 08:30N 37°21' E 024°59'917.3
2018-Feb-17 08:00N 37°26' E 025°08'917.6
2018-Feb-17 07:30N 37°31' E 025°17'917.2
2018-Feb-17 07:00N 37°37' E 025°25'816.9
2018-Feb-17 06:30N 37°43' E 025°32'816.9
2018-Feb-17 06:00N 37°49' E 025°40'1 0.0
2018-Feb-16 03:04N 37°50' E 025°39'316.5
2018-Feb-16 02:55N 37°49' E 025°37'716.1
2018-Feb-16 02:30N 37°44' E 025°31'816.2
2018-Feb-16 02:00N 37°38' E 025°24'816.1
2018-Feb-16 01:30N 37°32' E 025°17'816.2
2018-Feb-16 01:00N 37°27' E 025°09'1016.6
2018-Feb-16 00:23N 37°21' E 024°59'616.9
2018-Feb-16 00:00N 37°17' E 024°53'65014.5
2018-Feb-14 03:12N 44°14' E 013°55'716.5
2018-Feb-14 02:45N 44°20' E 013°50'916.6
2018-Feb-14 02:11N 44°28' E 013°42'516.7
2018-Feb-14 01:53N 44°33' E 013°38'616.7
2018-Feb-14 01:30N 44°38' E 013°34'816.6
2018-Feb-14 01:01N 44°45' E 013°28'816.9
2018-Feb-14 00:30N 44°52' E 013°21'816.9
2018-Feb-14 00:00N 44°59' E 013°15'816.8
2018-Feb-13 23:30N 45°06' E 013°08'816.7
2018-Feb-13 23:00N 45°14' E 013°04'816.8
2018-Feb-13 22:30N 45°22' E 013°02'816.5
2018-Feb-13 22:00N 45°28' E 013°10'816.8
2018-Feb-13 21:31N 45°34' E 013°19'917.1
2018-Feb-13 21:00N 45°37' E 013°30'816.3
2018-Feb-13 20:30N 45°39' E 013°41'3 0.1
2018-Feb-12 13:47N 45°38' E 013°46'0 0.0
2018-Feb-12 13:29N 45°38' E 013°46'0 0.0
2018-Feb-12 12:47N 45°38' E 013°46'0 0.0
2018-Feb-12 12:23N 45°38' E 013°46'0 0.0
2018-Feb-12 11:59N 45°38' E 013°46'0 0.0
2018-Feb-12 11:26N 45°38' E 013°46'0 0.3
2018-Feb-12 11:00N 45°38' E 013°46'4 7.8
2018-Feb-12 10:30N 45°39' E 013°40'815.4
2018-Feb-12 10:00N 45°35' E 013°31'815.2
2018-Feb-12 09:31N 45°30' E 013°22'815.5
2018-Feb-12 09:00N 45°24' E 013°15'714.8
2018-Feb-12 08:30N 45°18' E 013°10'815.9
2018-Feb-12 08:00N 45°11' E 013°15'816.2
2018-Feb-12 07:30N 45°03' E 013°19'917.3
2018-Feb-12 07:00N 44°55' E 013°23'917.4
2018-Feb-12 06:30N 44°48' E 013°30'917.8
2018-Feb-12 06:00N 44°40' E 013°37'  
Track history (hours):
 
Tides and Currents Weather Stations Pressure Air Temp Water Temp Dewpoint Dewpoint Depression Visibility Wind Speed Wind Dir Waves Ship Positions

Ulusoy-15

Last reported at 2018-Feb-21 01:30 UTC. Time now 2018-Feb-22 14:50 UTC.
Position N 44°36' E 013°35'.

Length 208 m; draft 5.3 m.

Type: Ship (hazmat cat A). MMSI: 271043165.

Date/timePositionNaut miles runAvg speedWind from/ knotsBaromVisibWave heightAir tempDewpointWater temp
2018-Feb-21 01:30N 44°36' E 013°35'816.7
2018-Feb-21 01:01N 44°43' E 013°29'816.8
2018-Feb-21 00:31N 44°50' E 013°22'816.8
2018-Feb-21 00:01N 44°57' E 013°16'816.6
2018-Feb-20 23:30N 45°04' E 013°10'816.4
2018-Feb-20 23:01N 45°11' E 013°04'816.5
2018-Feb-20 22:31N 45°19' E 013°01'816.3
2018-Feb-20 22:01N 45°26' E 013°08'917.1
2018-Feb-20 21:31N 45°33' E 013°16'917.0
2018-Feb-20 21:01N 45°36' E 013°27'917.0
2018-Feb-20 20:31N 45°39' E 013°38'5 0.2
2018-Feb-19 12:17N 45°38' E 013°46'0 0.0
2018-Feb-19 11:59N 45°38' E 013°46'0 0.0
2018-Feb-19 11:30N 45°38' E 013°46'1 1.3
2018-Feb-19 11:00N 45°38' E 013°45'510.7
2018-Feb-19 10:31N 45°38' E 013°37'714.0
2018-Feb-19 10:00N 45°34' E 013°29'815.2
2018-Feb-19 09:30N 45°29' E 013°21'816.1
2018-Feb-19 09:00N 45°23' E 013°13'815.8
2018-Feb-19 08:30N 45°16' E 013°15'817.0
2018-Feb-19 08:00N 45°08' E 013°19'816.8
2018-Feb-19 07:30N 44°60' E 013°23'816.6
2018-Feb-19 07:00N 44°52' E 013°27'816.6
2018-Feb-19 06:30N 44°45' E 013°32'68015.0
2018-Feb-17 09:10N 37°14' E 024°48'317.0
2018-Feb-17 09:00N 37°16' E 024°50'917.1
2018-Feb-17 08:30N 37°21' E 024°59'917.3
2018-Feb-17 08:00N 37°26' E 025°08'917.6
2018-Feb-17 07:30N 37°31' E 025°17'917.2
2018-Feb-17 07:00N 37°37' E 025°25'816.9
2018-Feb-17 06:30N 37°43' E 025°32'816.9
2018-Feb-17 06:00N 37°49' E 025°40'1 0.0
2018-Feb-16 03:04N 37°50' E 025°39'316.5
2018-Feb-16 02:55N 37°49' E 025°37'716.1
2018-Feb-16 02:30N 37°44' E 025°31'816.2
2018-Feb-16 02:00N 37°38' E 025°24'816.1
2018-Feb-16 01:30N 37°32' E 025°17'816.2
2018-Feb-16 01:00N 37°27' E 025°09'1016.6
2018-Feb-16 00:23N 37°21' E 024°59'616.9
2018-Feb-16 00:00N 37°17' E 024°53'65014.5
2018-Feb-14 03:12N 44°14' E 013°55'716.5
2018-Feb-14 02:45N 44°20' E 013°50'916.6
2018-Feb-14 02:11N 44°28' E 013°42'516.7
2018-Feb-14 01:53N 44°33' E 013°38'616.7
2018-Feb-14 01:30N 44°38' E 013°34'816.6
2018-Feb-14 01:01N 44°45' E 013°28'816.9
2018-Feb-14 00:30N 44°52' E 013°21'816.9
2018-Feb-14 00:00N 44°59' E 013°15'816.8
2018-Feb-13 23:30N 45°06' E 013°08'816.7
2018-Feb-13 23:00N 45°14' E 013°04'816.8
2018-Feb-13 22:30N 45°22' E 013°02'816.5
2018-Feb-13 22:00N 45°28' E 013°10'816.8
2018-Feb-13 21:31N 45°34' E 013°19'917.1
2018-Feb-13 21:00N 45°37' E 013°30'816.3
2018-Feb-13 20:30N 45°39' E 013°41'3 0.1
2018-Feb-12 13:47N 45°38' E 013°46'0 0.0
2018-Feb-12 13:29N 45°38' E 013°46'0 0.0
2018-Feb-12 12:47N 45°38' E 013°46'0 0.0
2018-Feb-12 12:23N 45°38' E 013°46'0 0.0
2018-Feb-12 11:59N 45°38' E 013°46'0 0.0
2018-Feb-12 11:26N 45°38' E 013°46'0 0.3
2018-Feb-12 11:00N 45°38' E 013°46'4 7.8
2018-Feb-12 10:30N 45°39' E 013°40'815.4
2018-Feb-12 10:00N 45°35' E 013°31'815.2
2018-Feb-12 09:31N 45°30' E 013°22'815.5
2018-Feb-12 09:00N 45°24' E 013°15'714.8
2018-Feb-12 08:30N 45°18' E 013°10'815.9
2018-Feb-12 08:00N 45°11' E 013°15'816.2
2018-Feb-12 07:30N 45°03' E 013°19'917.3
2018-Feb-12 07:00N 44°55' E 013°23'917.4
2018-Feb-12 06:30N 44°48' E 013°30'917.8
2018-Feb-12 06:00N 44°40' E 013°37'  

Dump ship's entire track history